sensor_id;sensor_type;location;lat;lon;timestamp;pressure;altitude;pressure_sealevel;temperature;humidity
44309;BME280;30022;55.846;37.340;2023-02-12T00:00:30;54359.22;;;-143.51;100.00
44309;BME280;30022;55.846;37.340;2023-02-12T00:02:56;53927.91;;;-143.51;100.00
44309;BME280;30022;55.846;37.340;2023-02-12T00:05:21;54557.13;;;-143.51;100.00
44309;BME280;30022;55.846;37.340;2023-02-12T00:07:47;54861.84;;;-143.51;100.00
44309;BME280;30022;55.846;37.340;2023-02-12T00:10:12;54289.97;;;-143.51;100.00
44309;BME280;30022;55.846;37.340;2023-02-12T00:12:38;54016.94;;;-143.51;100.00
44309;BME280;30022;55.846;37.340;2023-02-12T00:15:04;52804.28;;;-143.51;100.00
44309;BME280;30022;55.846;37.340;2023-02-12T00:17:29;52673.72;;;-143.51;100.00
44309;BME280;30022;55.846;37.340;2023-02-12T00:19:55;52859.66;;;-143.51;100.00
44309;BME280;30022;55.846;37.340;2023-02-12T00:22:20;52543.19;;;-143.51;100.00
44309;BME280;30022;55.846;37.340;2023-02-12T00:24:46;52713.28;;;-143.51;100.00
44309;BME280;30022;55.846;37.340;2023-02-12T00:27:11;52371.13;;;-143.51;100.00
44309;BME280;30022;55.846;37.340;2023-02-12T00:29:37;51965.72;;;-143.51;100.00
44309;BME280;30022;55.846;37.340;2023-02-12T00:32:04;51773.91;;;-143.51;100.00
44309;BME280;30022;55.846;37.340;2023-02-12T00:34:29;51485.22;;;-143.51;100.00
44309;BME280;30022;55.846;37.340;2023-02-12T00:36:55;51095.72;;;-143.51;100.00
44309;BME280;30022;55.846;37.340;2023-02-12T00:39:21;50864.41;;;-143.51;100.00
44309;BME280;30022;55.846;37.340;2023-02-12T00:41:46;50945.47;;;-143.51;100.00
44309;BME280;30022;55.846;37.340;2023-02-12T00:44:12;50864.41;;;-143.51;100.00
44309;BME280;30022;55.846;37.340;2023-02-12T00:46:37;50455.19;;;-143.51;100.00
44309;BME280;30022;55.846;37.340;2023-02-12T00:49:03;50194.28;;;-143.51;100.00
44309;BME280;30022;55.846;37.340;2023-02-12T00:51:28;50407.75;;;-143.51;100.00
44309;BME280;30022;55.846;37.340;2023-02-12T00:53:54;50214.03;;;-143.51;100.00
44309;BME280;30022;55.846;37.340;2023-02-12T00:56:20;49929.41;;;-143.51;100.00
44309;BME280;30022;55.846;37.340;2023-02-12T00:58:47;49955.09;;;-143.51;100.00
44309;BME280;30022;55.846;37.340;2023-02-12T01:01:13;49597.38;;;-143.51;100.00
44309;BME280;30022;55.846;37.340;2023-02-12T01:03:38;49621.09;;;-143.51;100.00
44309;BME280;30022;55.846;37.340;2023-02-12T01:06:04;49597.38;;;-143.51;100.00
44309;BME280;30022;55.846;37.340;2023-02-12T01:08:30;49601.31;;;-143.51;100.00
44309;BME280;30022;55.846;37.340;2023-02-12T01:10:57;49565.75;;;-143.51;100.00
44309;BME280;30022;55.846;37.340;2023-02-12T01:13:23;49773.28;;;-143.51;100.00
44309;BME280;30022;55.846;37.340;2023-02-12T01:15:59;49889.88;;;-143.51;100.00
44309;BME280;30022;55.846;37.340;2023-02-12T01:18:25;49700.16;;;-143.51;100.00
44309;BME280;30022;55.846;37.340;2023-02-12T01:20:50;49536.09;;;-143.51;100.00
44309;BME280;30022;55.846;37.340;2023-02-12T01:23:16;49421.47;;;-143.51;100.00
44309;BME280;30022;55.846;37.340;2023-02-12T01:25:41;49332.56;;;-143.51;100.00
44309;BME280;30022;55.846;37.340;2023-02-12T01:28:08;49204.09;;;-143.51;100.00
44309;BME280;30022;55.846;37.340;2023-02-12T01:30:34;49494.59;;;-143.51;100.00
44309;BME280;30022;55.846;37.340;2023-02-12T01:33:00;49261.41;;;-143.51;100.00
44309;BME280;30022;55.846;37.340;2023-02-12T01:35:25;49549.94;;;-143.51;100.00
44309;BME280;30022;55.846;37.340;2023-02-12T01:37:51;49287.09;;;-143.51;100.00
44309;BME280;30022;55.846;37.340;2023-02-12T01:40:17;49281.16;;;-143.51;100.00
44309;BME280;30022;55.846;37.340;2023-02-12T01:42:44;49368.13;;;-143.51;100.00
44309;BME280;30022;55.846;37.340;2023-02-12T01:47:41;49150.75;;;-143.51;100.00
44309;BME280;30022;55.846;37.340;2023-02-12T01:50:09;49168.53;;;-143.51;100.00
44309;BME280;30022;55.846;37.340;2023-02-12T01:52:36;49427.41;;;-143.51;100.00
44309;BME280;30022;55.846;37.340;2023-02-12T01:55:03;49575.63;;;-143.51;100.00
44309;BME280;30022;55.846;37.340;2023-02-12T01:57:30;49208.06;;;-143.51;100.00
44309;BME280;30022;55.846;37.340;2023-02-12T01:59:57;49249.56;;;-143.51;100.00
44309;BME280;30022;55.846;37.340;2023-02-12T02:02:24;49945.22;;;-143.51;100.00
44309;BME280;30022;55.846;37.340;2023-02-12T02:04:52;49982.78;;;-143.51;100.00
44309;BME280;30022;55.846;37.340;2023-02-12T02:07:20;49510.41;;;-143.51;100.00
44309;BME280;30022;55.846;37.340;2023-02-12T02:09:45;49581.56;;;-143.51;100.00
44309;BME280;30022;55.846;37.340;2023-02-12T02:12:11;49310.81;;;-143.51;100.00
44309;BME280;30022;55.846;37.340;2023-02-12T02:14:57;50065.78;;;-143.51;100.00
44309;BME280;30022;55.846;37.340;2023-02-12T02:30:30;49755.47;;;-143.51;100.00
44309;BME280;30022;55.846;37.340;2023-02-12T02:35:36;50251.59;;;-143.51;100.00
44309;BME280;30022;55.846;37.340;2023-02-12T02:38:19;51135.25;;;-143.51;100.00
44309;BME280;30022;55.846;37.340;2023-02-12T02:41:00;52129.84;;;-143.51;100.00
44309;BME280;30022;55.846;37.340;2023-02-12T02:43:27;51841.13;;;-143.51;100.00
44309;BME280;30022;55.846;37.340;2023-02-12T02:46:16;50431.47;;;-143.51;100.00
44309;BME280;30022;55.846;37.340;2023-02-12T02:48:47;50146.84;;;-143.51;100.00
44309;BME280;30022;55.846;37.340;2023-02-12T02:51:15;49741.66;;;-143.51;100.00
44309;BME280;30022;55.846;37.340;2023-02-12T02:53:47;50214.03;;;-143.51;100.00
44309;BME280;30022;55.846;37.340;2023-02-12T02:56:16;49719.91;;;-143.51;100.00
44309;BME280;30022;55.846;37.340;2023-02-12T02:58:45;49510.41;;;-143.51;100.00
44309;BME280;30022;55.846;37.340;2023-02-12T03:01:21;49202.13;;;-143.51;100.00
44309;BME280;30022;55.846;37.340;2023-02-12T03:03:51;49038.09;;;-143.51;100.00
44309;BME280;30022;55.846;37.340;2023-02-12T03:06:22;48810.88;;;-143.51;100.00
44309;BME280;30022;55.846;37.340;2023-02-12T03:08:55;48716.03;;;-143.51;100.00
44309;BME280;30022;55.846;37.340;2023-02-12T03:11:29;48637.00;;;-143.51;100.00
44309;BME280;30022;55.846;37.340;2023-02-12T03:16:45;48640.94;;;-143.51;100.00
44309;BME280;30022;55.846;37.340;2023-02-12T03:19:15;48625.13;;;-143.51;100.00
44309;BME280;30022;55.846;37.340;2023-02-12T03:21:43;48783.22;;;-143.51;100.00
44309;BME280;30022;55.846;37.340;2023-02-12T03:24:12;48518.44;;;-143.51;100.00
44309;BME280;30022;55.846;37.340;2023-02-12T03:26:45;48423.59;;;-143.51;100.00
44309;BME280;30022;55.846;37.340;2023-02-12T03:29:12;48759.50;;;-143.51;100.00
44309;BME280;30022;55.846;37.340;2023-02-12T03:36:49;48459.16;;;-143.51;100.00
44309;BME280;30022;55.846;37.340;2023-02-12T03:41:49;48471.03;;;-143.51;100.00
44309;BME280;30022;55.846;37.340;2023-02-12T03:46:49;48372.25;;;-143.51;100.00
44309;BME280;30022;55.846;37.340;2023-02-12T03:49:25;48362.34;;;-143.51;100.00
44309;BME280;30022;55.846;37.340;2023-02-12T03:51:52;48360.38;;;-143.51;100.00
44309;BME280;30022;55.846;37.340;2023-02-12T03:54:19;48455.22;;;-143.51;100.00
44309;BME280;30022;55.846;37.340;2023-02-12T03:57:06;48307.03;;;-143.51;100.00
44309;BME280;30022;55.846;37.340;2023-02-12T03:59:32;48397.94;;;-143.51;100.00
44309;BME280;30022;55.846;37.340;2023-02-12T04:01:59;48439.41;;;-143.51;100.00
44309;BME280;30022;55.846;37.340;2023-02-12T04:04:25;48380.16;;;-143.51;100.00
44309;BME280;30022;55.846;37.340;2023-02-12T04:06:50;48279.38;;;-143.51;100.00
44309;BME280;30022;55.846;37.340;2023-02-12T04:09:17;48192.44;;;-143.51;100.00
44309;BME280;30022;55.846;37.340;2023-02-12T04:16:57;48220.13;;;-143.51;100.00
44309;BME280;30022;55.846;37.340;2023-02-12T04:22:22;48123.31;;;-143.51;100.00
44309;BME280;30022;55.846;37.340;2023-02-12T04:27:19;47983.03;;;-143.51;100.00
44309;BME280;30022;55.846;37.340;2023-02-12T04:29:53;47825.00;;;-143.51;100.00
44309;BME280;30022;55.846;37.340;2023-02-12T04:37:17;47868.47;;;-143.51;100.00
44309;BME280;30022;55.846;37.340;2023-02-12T04:39:43;47823.03;;;-143.51;100.00
44309;BME280;30022;55.846;37.340;2023-02-12T04:42:10;47939.59;;;-143.51;100.00
44309;BME280;30022;55.846;37.340;2023-02-12T04:44:38;47848.72;;;-143.51;100.00
44309;BME280;30022;55.846;37.340;2023-02-12T04:47:03;47856.63;;;-143.51;100.00
44309;BME280;30022;55.846;37.340;2023-02-12T04:49:29;47771.66;;;-143.51;100.00
44309;BME280;30022;55.846;37.340;2023-02-12T04:51:55;47793.41;;;-143.51;100.00
44309;BME280;30022;55.846;37.340;2023-02-12T04:54:20;47708.44;;;-143.51;100.00
44309;BME280;30022;55.846;37.340;2023-02-12T04:56:47;47736.09;;;-143.51;100.00
44309;BME280;30022;55.846;37.340;2023-02-12T04:59:13;47799.31;;;-143.51;100.00
44309;BME280;30022;55.846;37.340;2023-02-12T05:01:39;47777.59;;;-143.51;100.00
44309;BME280;30022;55.846;37.340;2023-02-12T05:04:05;47720.31;;;-143.51;100.00
44309;BME280;30022;55.846;37.340;2023-02-12T05:06:34;47718.34;;;-143.51;100.00
44309;BME280;30022;55.846;37.340;2023-02-12T05:08:59;47674.88;;;-143.51;100.00
44309;BME280;30022;55.846;37.340;2023-02-12T05:11:25;47631.41;;;-143.51;100.00
44309;BME280;30022;55.846;37.340;2023-02-12T05:13:51;47674.88;;;-143.51;100.00
44309;BME280;30022;55.846;37.340;2023-02-12T05:16:17;47665.00;;;-143.51;100.00
44309;BME280;30022;55.846;37.340;2023-02-12T05:18:43;47663.03;;;-143.51;100.00
44309;BME280;30022;55.846;37.340;2023-02-12T05:21:09;47627.47;;;-143.51;100.00
44309;BME280;30022;55.846;37.340;2023-02-12T05:23:35;47629.44;;;-143.51;100.00
44309;BME280;30022;55.846;37.340;2023-02-12T05:26:02;47591.91;;;-143.51;100.00
44309;BME280;30022;55.846;37.340;2023-02-12T05:28:28;47641.28;;;-143.51;100.00
44309;BME280;30022;55.846;37.340;2023-02-12T05:30:54;47532.66;;;-143.51;100.00
44309;BME280;30022;55.846;37.340;2023-02-12T05:33:20;47536.59;;;-143.51;100.00
44309;BME280;30022;55.846;37.340;2023-02-12T05:35:45;47542.53;;;-143.51;100.00
44309;BME280;30022;55.846;37.340;2023-02-12T05:38:11;47503.03;;;-143.51;100.00
44309;BME280;30022;55.846;37.340;2023-02-12T05:40:36;47467.47;;;-143.51;100.00
44309;BME280;30022;55.846;37.340;2023-02-12T05:43:04;47402.28;;;-143.51;100.00
44309;BME280;30022;55.846;37.340;2023-02-12T05:45:31;47457.59;;;-143.51;100.00
44309;BME280;30022;55.846;37.340;2023-02-12T05:47:56;47471.41;;;-143.51;100.00
44309;BME280;30022;55.846;37.340;2023-02-12T05:50:22;47410.19;;;-143.51;100.00
44309;BME280;30022;55.846;37.340;2023-02-12T05:53:00;47427.97;;;-143.51;100.00
44309;BME280;30022;55.846;37.340;2023-02-12T05:55:26;47475.38;;;-143.51;100.00
44309;BME280;30022;55.846;37.340;2023-02-12T05:57:52;47437.84;;;-143.51;100.00
44309;BME280;30022;55.846;37.340;2023-02-12T06:00:17;47414.13;;;-143.51;100.00
44309;BME280;30022;55.846;37.340;2023-02-12T06:02:43;47408.22;;;-143.51;100.00
44309;BME280;30022;55.846;37.340;2023-02-12T06:05:09;47463.50;;;-143.51;100.00
44309;BME280;30022;55.846;37.340;2023-02-12T06:07:34;47483.28;;;-143.51;100.00
44309;BME280;30022;55.846;37.340;2023-02-12T06:10:00;47441.78;;;-143.51;100.00
44309;BME280;30022;55.846;37.340;2023-02-12T06:12:25;47418.09;;;-143.51;100.00
44309;BME280;30022;55.846;37.340;2023-02-12T06:14:51;47404.25;;;-143.51;100.00
44309;BME280;30022;55.846;37.340;2023-02-12T06:17:16;47447.72;;;-143.51;100.00
44309;BME280;30022;55.846;37.340;2023-02-12T06:19:42;47447.72;;;-143.51;100.00
44309;BME280;30022;55.846;37.340;2023-02-12T06:22:07;47374.63;;;-143.51;100.00
44309;BME280;30022;55.846;37.340;2023-02-12T06:24:33;47319.31;;;-143.51;100.00
44309;BME280;30022;55.846;37.340;2023-02-12T06:26:59;47299.56;;;-143.51;100.00
44309;BME280;30022;55.846;37.340;2023-02-12T06:29:24;47337.09;;;-143.51;100.00
44309;BME280;30022;55.846;37.340;2023-02-12T06:31:50;47295.63;;;-143.51;100.00
44309;BME280;30022;55.846;37.340;2023-02-12T06:34:16;47309.44;;;-143.51;100.00
44309;BME280;30022;55.846;37.340;2023-02-12T06:36:43;47216.63;;;-143.51;100.00
44309;BME280;30022;55.846;37.340;2023-02-12T06:39:09;47246.25;;;-143.51;100.00
44309;BME280;30022;55.846;37.340;2023-02-12T06:41:34;47285.75;;;-143.51;100.00
44309;BME280;30022;55.846;37.340;2023-02-12T06:44:00;47267.97;;;-143.51;100.00
44309;BME280;30022;55.846;37.340;2023-02-12T06:46:26;47289.69;;;-143.51;100.00
44309;BME280;30022;55.846;37.340;2023-02-12T06:48:52;47254.16;;;-143.51;100.00
44309;BME280;30022;55.846;37.340;2023-02-12T06:51:18;47210.69;;;-143.51;100.00
44309;BME280;30022;55.846;37.340;2023-02-12T06:53:46;47258.09;;;-143.51;100.00
44309;BME280;30022;55.846;37.340;2023-02-12T06:56:12;47303.53;;;-143.51;100.00
44309;BME280;30022;55.846;37.340;2023-02-12T06:58:38;47279.81;;;-143.51;100.00
44309;BME280;30022;55.846;37.340;2023-02-12T07:03:40;47252.16;;;-143.51;100.00
44309;BME280;30022;55.846;37.340;2023-02-12T07:06:06;47194.88;;;-143.51;100.00
44309;BME280;30022;55.846;37.340;2023-02-12T07:08:32;47183.03;;;-143.51;100.00
44309;BME280;30022;55.846;37.340;2023-02-12T07:10:58;47185.00;;;-143.51;100.00
44309;BME280;30022;55.846;37.340;2023-02-12T07:13:23;47224.50;;;-143.51;100.00
44309;BME280;30022;55.846;37.340;2023-02-12T07:15:49;47232.41;;;-143.51;100.00
44309;BME280;30022;55.846;37.340;2023-02-12T07:18:14;47183.03;;;-143.51;100.00
44309;BME280;30022;55.846;37.340;2023-02-12T07:20:40;47226.50;;;-143.51;100.00
44309;BME280;30022;55.846;37.340;2023-02-12T07:23:06;47210.69;;;-143.51;100.00
44309;BME280;30022;55.846;37.340;2023-02-12T07:25:31;47151.44;;;-143.51;100.00
44309;BME280;30022;55.846;37.340;2023-02-12T07:27:57;47179.09;;;-143.51;100.00
44309;BME280;30022;55.846;37.340;2023-02-12T07:30:22;47145.50;;;-143.51;100.00
44309;BME280;30022;55.846;37.340;2023-02-12T07:32:48;47179.09;;;-143.51;100.00
44309;BME280;30022;55.846;37.340;2023-02-12T07:35:13;47238.34;;;-143.51;100.00
44309;BME280;30022;55.846;37.340;2023-02-12T07:37:39;47236.38;;;-143.51;100.00
44309;BME280;30022;55.846;37.340;2023-02-12T07:40:05;47230.44;;;-143.51;100.00
44309;BME280;30022;55.846;37.340;2023-02-12T07:42:31;47165.25;;;-143.51;100.00
44309;BME280;30022;55.846;37.340;2023-02-12T07:45:01;47165.25;;;-143.51;100.00
44309;BME280;30022;55.846;37.340;2023-02-12T07:47:27;47151.44;;;-143.51;100.00
44309;BME280;30022;55.846;37.340;2023-02-12T07:49:53;47088.22;;;-143.51;100.00
44309;BME280;30022;55.846;37.340;2023-02-12T07:52:18;47127.72;;;-143.51;100.00
44309;BME280;30022;55.846;37.340;2023-02-12T07:54:44;47123.78;;;-143.51;100.00
44309;BME280;30022;55.846;37.340;2023-02-12T07:57:10;47153.41;;;-143.51;100.00
44309;BME280;30022;55.846;37.340;2023-02-12T07:59:35;47102.06;;;-143.51;100.00
44309;BME280;30022;55.846;37.340;2023-02-12T08:02:01;47072.44;;;-143.51;100.00
44309;BME280;30022;55.846;37.340;2023-02-12T08:04:26;47074.41;;;-143.51;100.00
44309;BME280;30022;55.846;37.340;2023-02-12T08:06:53;47076.38;;;-143.51;100.00
44309;BME280;30022;55.846;37.340;2023-02-12T08:09:20;47139.59;;;-143.51;100.00
44309;BME280;30022;55.846;37.340;2023-02-12T08:11:46;47119.84;;;-143.51;100.00
44309;BME280;30022;55.846;37.340;2023-02-12T08:14:13;47038.84;;;-143.51;100.00
44309;BME280;30022;55.846;37.340;2023-02-12T08:16:39;47046.75;;;-143.51;100.00
44309;BME280;30022;55.846;37.340;2023-02-12T08:19:05;47070.47;;;-143.51;100.00
44309;BME280;30022;55.846;37.340;2023-02-12T08:21:31;47106.00;;;-143.51;100.00
44309;BME280;30022;55.846;37.340;2023-02-12T08:23:57;47044.78;;;-143.51;100.00
44309;BME280;30022;55.846;37.340;2023-02-12T08:26:24;47052.69;;;-143.51;100.00
44309;BME280;30022;55.846;37.340;2023-02-12T08:28:53;47072.44;;;-143.51;100.00
44309;BME280;30022;55.846;37.340;2023-02-12T08:31:20;47023.06;;;-143.51;100.00
44309;BME280;30022;55.846;37.340;2023-02-12T08:33:47;46979.59;;;-143.51;100.00
44309;BME280;30022;55.846;37.340;2023-02-12T08:36:13;47013.19;;;-143.51;100.00
44309;BME280;30022;55.846;37.340;2023-02-12T08:38:39;47052.69;;;-143.51;100.00
44309;BME280;30022;55.846;37.340;2023-02-12T08:41:07;46997.38;;;-143.51;100.00
44309;BME280;30022;55.846;37.340;2023-02-12T08:43:33;47028.97;;;-143.51;100.00
44309;BME280;30022;55.846;37.340;2023-02-12T08:46:03;46997.38;;;-143.51;100.00
44309;BME280;30022;55.846;37.340;2023-02-12T08:48:30;46999.34;;;-143.51;100.00
44309;BME280;30022;55.846;37.340;2023-02-12T08:50:55;47056.63;;;-143.51;100.00
44309;BME280;30022;55.846;37.340;2023-02-12T08:53:21;47009.22;;;-143.51;100.00
44309;BME280;30022;55.846;37.340;2023-02-12T08:55:47;47046.75;;;-143.51;100.00
44309;BME280;30022;55.846;37.340;2023-02-12T08:58:13;47021.09;;;-143.51;100.00
44309;BME280;30022;55.846;37.340;2023-02-12T09:00:39;47044.78;;;-143.51;100.00
44309;BME280;30022;55.846;37.340;2023-02-12T09:03:05;47084.28;;;-143.51;100.00
44309;BME280;30022;55.846;37.340;2023-02-12T09:05:30;47072.44;;;-143.51;100.00
44309;BME280;30022;55.846;37.340;2023-02-12T09:07:56;47100.09;;;-143.51;100.00
44309;BME280;30022;55.846;37.340;2023-02-12T09:10:40;47023.06;;;-143.51;100.00
44309;BME280;30022;55.846;37.340;2023-02-12T09:13:06;47038.84;;;-143.51;100.00
44309;BME280;30022;55.846;37.340;2023-02-12T09:15:50;47086.25;;;-143.51;100.00
44309;BME280;30022;55.846;37.340;2023-02-12T09:18:16;47094.16;;;-143.51;100.00
44309;BME280;30022;55.846;37.340;2023-02-12T09:20:42;47094.16;;;-143.51;100.00
44309;BME280;30022;55.846;37.340;2023-02-12T09:23:09;47048.72;;;-143.51;100.00
44309;BME280;30022;55.846;37.340;2023-02-12T09:25:38;47034.91;;;-143.51;100.00
44309;BME280;30022;55.846;37.340;2023-02-12T09:28:04;47046.75;;;-143.51;100.00
44309;BME280;30022;55.846;37.340;2023-02-12T09:30:29;47042.81;;;-143.51;100.00
44309;BME280;30022;55.846;37.340;2023-02-12T09:32:55;47013.19;;;-143.51;100.00
44309;BME280;30022;55.846;37.340;2023-02-12T09:35:21;47013.19;;;-143.51;100.00
44309;BME280;30022;55.846;37.340;2023-02-12T09:37:47;47003.31;;;-143.51;100.00
44309;BME280;30022;55.846;37.340;2023-02-12T09:40:27;47013.19;;;-143.51;100.00
44309;BME280;30022;55.846;37.340;2023-02-12T09:43:03;47009.22;;;-143.51;100.00
44309;BME280;30022;55.846;37.340;2023-02-12T09:45:41;47032.94;;;-143.51;100.00
44309;BME280;30022;55.846;37.340;2023-02-12T09:48:18;47072.44;;;-143.51;100.00
44309;BME280;30022;55.846;37.340;2023-02-12T09:50:51;47036.88;;;-143.51;100.00
44309;BME280;30022;55.846;37.340;2023-02-12T09:53:25;47028.97;;;-143.51;100.00
44309;BME280;30022;55.846;37.340;2023-02-12T09:55:52;47076.38;;;-143.51;100.00
44309;BME280;30022;55.846;37.340;2023-02-12T09:58:29;47090.22;;;-143.51;100.00
44309;BME280;30022;55.846;37.340;2023-02-12T10:00:55;47123.78;;;-143.51;100.00
44309;BME280;30022;55.846;37.340;2023-02-12T10:03:21;47159.34;;;-143.51;100.00
44309;BME280;30022;55.846;37.340;2023-02-12T10:05:55;47117.84;;;-143.51;100.00
44309;BME280;30022;55.846;37.340;2023-02-12T10:08:36;47113.91;;;-143.51;100.00
44309;BME280;30022;55.846;37.340;2023-02-12T10:18:35;47113.91;;;-143.51;100.00
44309;BME280;30022;55.846;37.340;2023-02-12T10:21:10;47117.84;;;-143.51;100.00
44309;BME280;30022;55.846;37.340;2023-02-12T10:28:35;47019.09;;;-143.51;100.00
44309;BME280;30022;55.846;37.340;2023-02-12T10:31:08;47066.50;;;-143.51;100.00
44309;BME280;30022;55.846;37.340;2023-02-12T10:33:41;47086.25;;;-143.51;100.00
44309;BME280;30022;55.846;37.340;2023-02-12T10:39:03;47098.09;;;-143.51;100.00
44309;BME280;30022;55.846;37.340;2023-02-12T10:41:31;47072.44;;;-143.51;100.00
44309;BME280;30022;55.846;37.340;2023-02-12T10:43:59;47044.78;;;-143.51;100.00
44309;BME280;30022;55.846;37.340;2023-02-12T10:46:26;47068.47;;;-143.51;100.00
44309;BME280;30022;55.846;37.340;2023-02-12T10:48:52;47040.84;;;-143.51;100.00
44309;BME280;30022;55.846;37.340;2023-02-12T10:51:40;47068.47;;;-143.51;100.00
44309;BME280;30022;55.846;37.340;2023-02-12T10:56:57;47107.97;;;-143.51;100.00
44309;BME280;30022;55.846;37.340;2023-02-12T10:59:23;47096.13;;;-143.51;100.00
44309;BME280;30022;55.846;37.340;2023-02-12T11:01:48;47009.22;;;-143.51;100.00
44309;BME280;30022;55.846;37.340;2023-02-12T11:04:19;47062.56;;;-143.51;100.00
44309;BME280;30022;55.846;37.340;2023-02-12T11:09:44;47032.94;;;-143.51;100.00
44309;BME280;30022;55.846;37.340;2023-02-12T11:12:27;47092.19;;;-143.51;100.00
44309;BME280;30022;55.846;37.340;2023-02-12T11:14:58;47104.03;;;-143.51;100.00
44309;BME280;30022;55.846;37.340;2023-02-12T11:17:26;47074.41;;;-143.51;100.00
44309;BME280;30022;55.846;37.340;2023-02-12T11:22:34;47078.34;;;-143.51;100.00
44309;BME280;30022;55.846;37.340;2023-02-12T11:25:02;47028.97;;;-143.51;100.00
44309;BME280;30022;55.846;37.340;2023-02-12T11:27:32;47038.84;;;-143.51;100.00
44309;BME280;30022;55.846;37.340;2023-02-12T11:30:18;47064.53;;;-143.51;100.00
44309;BME280;30022;55.846;37.340;2023-02-12T11:32:44;47007.25;;;-143.51;100.00
44309;BME280;30022;55.846;37.340;2023-02-12T11:35:23;47068.47;;;-143.51;100.00
44309;BME280;30022;55.846;37.340;2023-02-12T11:37:54;47003.31;;;-143.51;100.00
44309;BME280;30022;55.846;37.340;2023-02-12T11:40:22;46989.47;;;-143.51;100.00
44309;BME280;30022;55.846;37.340;2023-02-12T11:42:55;46975.66;;;-143.51;100.00
44309;BME280;30022;55.846;37.340;2023-02-12T11:45:25;47028.97;;;-143.51;100.00
44309;BME280;30022;55.846;37.340;2023-02-12T11:47:53;47013.19;;;-143.51;100.00
44309;BME280;30022;55.846;37.340;2023-02-12T11:50:26;47027.00;;;-143.51;100.00
44309;BME280;30022;55.846;37.340;2023-02-12T11:52:53;47042.81;;;-143.51;100.00
44309;BME280;30022;55.846;37.340;2023-02-12T11:55:24;47060.59;;;-143.51;100.00
44309;BME280;30022;55.846;37.340;2023-02-12T11:57:52;46981.59;;;-143.51;100.00
44309;BME280;30022;55.846;37.340;2023-02-12T12:00:29;47001.34;;;-143.51;100.00
44309;BME280;30022;55.846;37.340;2023-02-12T12:05:47;46973.69;;;-143.51;100.00
44309;BME280;30022;55.846;37.340;2023-02-12T12:08:24;47044.78;;;-143.51;100.00
44309;BME280;30022;55.846;37.340;2023-02-12T12:11:12;47005.28;;;-143.51;100.00
44309;BME280;30022;55.846;37.340;2023-02-12T12:13:47;46967.75;;;-143.51;100.00
44309;BME280;30022;55.846;37.340;2023-02-12T12:16:19;46944.06;;;-143.51;100.00
44309;BME280;30022;55.846;37.340;2023-02-12T12:19:09;46971.72;;;-143.51;100.00
44309;BME280;30022;55.846;37.340;2023-02-12T12:26:48;46989.47;;;-143.51;100.00
44309;BME280;30022;55.846;37.340;2023-02-12T12:32:08;46949.97;;;-143.51;100.00
44309;BME280;30022;55.846;37.340;2023-02-12T12:34:36;46946.03;;;-143.51;100.00
44309;BME280;30022;55.846;37.340;2023-02-12T12:55:10;47009.22;;;-143.51;100.00
44309;BME280;30022;55.846;37.340;2023-02-12T12:57:49;46985.53;;;-143.51;100.00
44309;BME280;30022;55.846;37.340;2023-02-12T13:05:35;46985.53;;;-143.51;100.00
44309;BME280;30022;55.846;37.340;2023-02-12T13:13:31;46993.44;;;-143.51;100.00
44309;BME280;30022;55.846;37.340;2023-02-12T13:18:30;46967.75;;;-143.51;100.00
44309;BME280;30022;55.846;37.340;2023-02-12T13:21:26;46930.22;;;-143.51;100.00
44309;BME280;30022;55.846;37.340;2023-02-12T13:28:41;46957.88;;;-143.51;100.00
44309;BME280;30022;55.846;37.340;2023-02-12T13:31:08;46940.09;;;-143.51;100.00
44309;BME280;30022;55.846;37.340;2023-02-12T13:33:41;46993.44;;;-143.51;100.00
44309;BME280;30022;55.846;37.340;2023-02-12T13:36:09;46940.09;;;-143.51;100.00
44309;BME280;30022;55.846;37.340;2023-02-12T13:38:40;46932.22;;;-143.51;100.00
44309;BME280;30022;55.846;37.340;2023-02-12T13:41:08;46957.88;;;-143.51;100.00
44309;BME280;30022;55.846;37.340;2023-02-12T13:58:51;46983.56;;;-143.51;100.00
44309;BME280;30022;55.846;37.340;2023-02-12T14:07:00;46969.72;;;-143.51;100.00
44309;BME280;30022;55.846;37.340;2023-02-12T14:09:31;46969.72;;;-143.51;100.00
44309;BME280;30022;55.846;37.340;2023-02-12T14:11:59;46967.75;;;-143.51;100.00
44309;BME280;30022;55.846;37.340;2023-02-12T14:16:52;46977.63;;;-143.51;100.00
44309;BME280;30022;55.846;37.340;2023-02-12T14:19:36;46977.63;;;-143.51;100.00
44309;BME280;30022;55.846;37.340;2023-02-12T14:22:10;46973.69;;;-143.51;100.00
44309;BME280;30022;55.846;37.340;2023-02-12T14:27:05;46997.38;;;-143.51;100.00
44309;BME280;30022;55.846;37.340;2023-02-12T14:29:40;47005.28;;;-143.51;100.00
44309;BME280;30022;55.846;37.340;2023-02-12T14:37:53;46973.69;;;-143.51;100.00
44309;BME280;30022;55.846;37.340;2023-02-12T14:43:24;46983.56;;;-143.51;100.00
44309;BME280;30022;55.846;37.340;2023-02-12T14:45:51;46989.47;;;-143.51;100.00
44309;BME280;30022;55.846;37.340;2023-02-12T14:51:01;46983.56;;;-143.51;100.00
44309;BME280;30022;55.846;37.340;2023-02-12T14:53:33;46997.38;;;-143.51;100.00
44309;BME280;30022;55.846;37.340;2023-02-12T14:55:59;46995.41;;;-143.51;100.00
44309;BME280;30022;55.846;37.340;2023-02-12T14:58:27;46975.66;;;-143.51;100.00
44309;BME280;30022;55.846;37.340;2023-02-12T15:00:55;46997.38;;;-143.51;100.00
44309;BME280;30022;55.846;37.340;2023-02-12T15:03:24;46955.91;;;-143.51;100.00